Time;durP1;ratioP1;P1;durP2;ratioP2;P2;SDS_P1;SDS_P2;PMS_P1;PMS_P2;Temp;Humidity;BMP_temperature;BMP_pressure;BME280_temperature;BME280_humidity;BME280_pressure;Samples;Min_cycle;Max_cycle;Signal;HPM_P1;HPM_P2
2023/08/24 00:00:02;;;;;;;11.57;5.15;;;16.30;99.90;;;;;;6219859;23;20050;-87
2023/08/24 00:02:33;;;;;;;12.30;5.63;;;16.30;99.90;;;;;;6219046;23;20049;-87
2023/08/24 00:05:16;;;;;;;12.02;5.32;;;16.20;99.90;;;;;;6217907;23;20067;-87
2023/08/24 00:07:42;;;;;;;13.43;4.85;;;16.20;99.90;;;;;;6219358;23;20058;-87
2023/08/24 00:10:16;;;;;;;10.80;5.15;;;16.20;99.90;;;;;;6246178;23;20341;-88
2023/08/24 00:16:53;;;;;;;13.25;6.10;;;15.80;99.90;;;;;;6236082;22;20023;-86
2023/08/24 00:19:42;;;;;;;12.35;5.95;;;16.10;99.90;;;;;;6157150;23;20115;-86
2023/08/24 00:24:46;;;;;;;11.25;5.70;;;16.10;99.90;;;;;;6245694;22;20020;-87
2023/08/24 00:27:13;;;;;;;12.18;6.25;;;16.10;99.90;;;;;;6218541;23;20321;-86
2023/08/24 00:29:51;;;;;;;11.85;5.88;;;16.10;99.90;;;;;;6218652;23;20012;-87
2023/08/24 00:32:59;;;;;;;12.05;6.15;;;16.00;99.90;;;;;;6218239;22;20329;-87
2023/08/24 00:38:19;;;;;;;12.55;6.20;;;16.00;99.90;;;;;;6207111;22;20099;-87
2023/08/24 00:40:55;;;;;;;;;;;;;;;;;;;;;
2023/08/24 00:43:50;;;;;;;12.65;5.82;;;16.00;99.90;;;;;;6154393;23;20422;-87
2023/08/24 00:49:40;;;;;;;11.68;6.07;;;15.90;99.90;;;;;;6244034;22;20024;-88
2023/08/24 00:52:06;;;;;;;12.30;5.95;;;15.90;99.90;;;;;;6217423;22;20048;-88
2023/08/24 00:54:41;;;;;;;13.52;6.65;;;16.70;99.90;;;;;;6217915;23;20027;-88
2023/08/24 01:00:26;;;;;;;11.98;6.13;;;15.70;99.90;;;;;;6099203;23;20026;-88
2023/08/24 01:02:57;;;;;;;13.00;6.60;;;15.70;99.90;;;;;;6122770;23;20018;-88
2023/08/24 01:05:44;;;;;;;12.35;6.28;;;15.70;99.90;;;;;;6099318;23;20017;-88
2023/08/24 01:08:57;;;;;;;13.48;6.93;;;15.70;99.90;;;;;;6098422;23;20104;-88
2023/08/24 01:12:16;;;;;;;13.55;7.03;;;15.80;99.90;;;;;;6160875;22;20039;-88
2023/08/24 01:18:43;;;;;;;13.45;7.45;;;15.40;99.90;;;;;;6220905;23;20023;-88
2023/08/24 01:21:21;;;;;;;13.63;6.95;;;16.00;99.90;;;;;;6113183;23;20490;-87
2023/08/24 01:24:27;;;;;;;16.23;7.70;;;15.50;99.90;;;;;;6136125;23;20069;-88
2023/08/24 01:26:56;;;;;;;16.48;7.75;;;15.60;99.90;;;;;;6100314;23;20508;-88
2023/08/24 01:29:26;;;;;;;14.27;8.02;;;15.60;99.90;;;;;;6076127;23;20501;-88
2023/08/24 01:31:57;;;;;;;16.85;8.75;;;15.60;99.90;;;;;;6100839;23;20054;-89
2023/08/24 01:35:01;;;;;;;15.60;8.80;;;15.70;99.90;;;;;;6101701;23;20022;-88
2023/08/24 01:37:37;;;;;;;19.45;8.85;;;15.60;99.90;;;;;;6042197;23;20054;-88
2023/08/24 01:40:09;;;;;;;16.17;9.00;;;15.70;99.90;;;;;;6130261;23;20346;-88
2023/08/24 01:43:03;;;;;;;16.90;9.70;;;15.70;99.90;;;;;;6205063;23;20035;-88
2023/08/24 01:45:42;;;;;;;16.13;9.35;;;15.80;99.90;;;;;;6220599;23;20075;-88
2023/08/24 01:48:26;;;;;;;18.40;9.63;;;15.90;99.90;;;;;;6247295;23;20020;-88
2023/08/24 01:51:10;;;;;;;;;;;15.90;99.90;;;;;;6246237;23;20020;-88
2023/08/24 01:56:27;;;;;;;18.40;10.73;;;16.00;99.90;;;;;;6219215;22;20441;-88
2023/08/24 01:59:01;;;;;;;17.17;9.93;;;16.10;99.90;;;;;;6244491;23;20456;-88
2023/08/24 02:01:36;;;;;;;19.83;10.85;;;15.90;99.90;;;;;;6218990;23;20016;-88
2023/08/24 02:04:04;;;;;;;18.67;10.35;;;16.00;99.90;;;;;;6218839;23;20016;-88
2023/08/24 02:06:54;;;;;;;;;;;;;;;;;;;;;
2023/08/24 02:09:51;;;;;;;18.65;9.82;;;16.00;99.90;;;;;;6127452;22;20016;-88
2023/08/24 02:12:25;;;;;;;15.18;10.07;;;16.10;99.90;;;;;;6142165;23;20021;-88
2023/08/24 02:14:59;;;;;;;17.88;9.90;;;16.10;99.90;;;;;;6212040;22;20433;-88
2023/08/24 02:17:48;;;;;;;18.55;10.27;;;16.10;99.90;;;;;;6246953;23;20059;-88
2023/08/24 02:20:16;;;;;;;17.60;10.48;;;16.20;99.90;;;;;;6200690;23;20372;-88
2023/08/24 02:23:05;;;;;;;17.42;10.48;;;16.10;99.90;;;;;;6243315;22;20078;-88
2023/08/24 02:25:43;;;;;;;;;;;;;;;;;;;;;
2023/08/24 02:31:15;;;;;;;17.83;10.35;;;16.10;99.90;;;;;;6243876;23;20024;-88
2023/08/24 02:33:56;;;;;;;;;;;;;;;;;;;;;
2023/08/24 02:36:54;;;;;;;16.52;9.65;;;16.20;99.90;;;;;;6149478;23;20446;-87
2023/08/24 02:39:23;;;;;;;17.77;10.30;;;16.20;99.90;;;;;;6218635;23;20016;-87
2023/08/24 02:41:52;;;;;;;18.60;10.00;;;16.20;99.90;;;;;;6246118;23;20016;-88
2023/08/24 02:44:23;;;;;;;19.10;10.25;;;16.20;99.90;;;;;;6246262;23;20314;-88
2023/08/24 02:46:58;;;;;;;17.17;10.60;;;16.20;99.90;;;;;;6244156;23;20103;-87
2023/08/24 02:49:27;;;;;;;19.05;10.98;;;16.10;99.90;;;;;;6216900;23;20429;-88
2023/08/24 02:54:42;;;;;;;18.08;10.45;;;16.20;99.90;;;;;;6244922;22;20019;-88
2023/08/24 02:57:32;;;;;;;18.38;10.35;;;16.10;99.90;;;;;;6219637;23;20328;-88
2023/08/24 03:02:30;;;;;;;17.02;10.80;;;16.10;99.90;;;;;;6245260;23;20047;-88
2023/08/24 03:08:21;;;;;;;18.98;10.85;;;16.10;99.90;;;;;;6217525;23;20031;-88
2023/08/24 03:10:50;;;;;;;20.10;10.00;;;16.10;99.90;;;;;;6219134;23;20333;-88
2023/08/24 03:13:25;;;;;;;17.55;10.10;;;16.00;99.90;;;;;;6219497;23;20070;-88
2023/08/24 03:18:58;;;;;;;16.13;9.23;;;16.00;99.90;;;;;;6217872;23;20095;-88
2023/08/24 03:21:24;;;;;;;15.88;9.40;;;16.10;99.90;;;;;;6218296;23;20222;-88
2023/08/24 03:24:04;;;;;;;16.40;9.63;;;16.10;99.90;;;;;;6219066;23;20460;-88
2023/08/24 03:26:35;;;;;;;18.95;9.98;;;16.00;99.90;;;;;;6219521;23;20027;-88
2023/08/24 03:29:12;;;;;;;14.93;9.27;;;16.00;99.90;;;;;;6215544;23;20022;-88
2023/08/24 03:31:44;;;;;;;16.67;9.68;;;16.00;99.90;;;;;;6150897;22;20012;-87
2023/08/24 03:38:54;;;;;;;17.73;10.00;;;16.00;99.90;;;;;;6243098;22;20077;-88
2023/08/24 03:41:48;;;;;;;18.40;10.15;;;15.90;99.90;;;;;;6217086;23;20042;-88
2023/08/24 03:44:36;;;;;;;16.08;9.63;;;15.90;99.90;;;;;;6217967;23;20024;-87
2023/08/24 03:47:35;;;;;;;17.48;9.52;;;15.90;99.90;;;;;;6218522;22;20073;-88
2023/08/24 03:50:12;;;;;;;17.50;8.73;;;15.70;99.90;;;;;;6244564;23;20111;-88
2023/08/24 03:52:54;;;;;;;15.48;9.20;;;16.40;99.90;;;;;;6243551;22;20497;-88
2023/08/24 03:57:58;;;;;;;16.80;9.25;;;15.70;99.90;;;;;;6244009;22;20020;-87
2023/08/24 04:03:59;;;;;;;16.83;9.82;;;15.60;99.90;;;;;;6204474;23;20020;-88
2023/08/24 04:16:41;;;;;;;16.42;9.57;;;15.00;99.90;;;;;;6245729;23;20027;-87
2023/08/24 04:19:26;;;;;;;19.17;9.65;;;15.30;99.90;;;;;;6156142;23;20121;-87
2023/08/24 04:22:07;;;;;;;16.77;9.70;;;15.30;99.90;;;;;;6246230;23;20019;-88
2023/08/24 04:24:48;;;;;;;17.80;9.18;;;15.20;99.90;;;;;;6219668;23;20424;-87
2023/08/24 04:27:29;;;;;;;15.88;9.55;;;15.20;99.90;;;;;;6222185;23;20016;-88
2023/08/24 04:30:11;;;;;;;16.40;9.50;;;15.20;99.90;;;;;;6218372;23;20024;-87
2023/08/24 04:32:43;;;;;;;16.10;9.43;;;15.10;99.90;;;;;;6218158;23;20016;-88
2023/08/24 04:35:33;;;;;;;18.02;9.95;;;14.60;99.90;;;;;;6245742;23;20142;-88
2023/08/24 04:41:16;;;;;;;19.20;9.60;;;15.10;99.90;;;;;;6151717;23;20018;-88
2023/08/24 04:43:45;;;;;;;19.42;9.52;;;15.10;99.90;;;;;;6219223;23;20023;-87
2023/08/24 04:49:05;;;;;;;15.38;8.88;;;15.10;99.90;;;;;;6158086;23;20360;-88
2023/08/24 04:52:31;;;;;;;;;;;;;;;;;;;;;
2023/08/24 04:55:06;;;;;;;16.35;9.82;;;15.10;99.90;;;;;;6217049;23;20017;-87
2023/08/24 04:57:53;;;;;;;17.33;9.63;;;15.00;99.90;;;;;;6216827;23;20017;-87
2023/08/24 05:00:19;;;;;;;17.85;9.55;;;15.10;99.90;;;;;;6220923;23;20099;-88
2023/08/24 05:02:57;;;;;;;17.83;9.43;;;15.00;99.90;;;;;;6225558;23;20016;-88
2023/08/24 05:05:35;;;;;;;;;;;;;;;;;;;;;
2023/08/24 05:08:11;;;;;;;17.73;9.20;;;15.10;99.90;;;;;;6227256;23;20023;-88
2023/08/24 05:14:25;;;;;;;16.42;7.93;;;15.00;99.90;;;;;;6246261;23;20448;-88
2023/08/24 05:16:58;;;;;;;14.77;8.63;;;15.10;99.90;;;;;;6216439;23;20047;-87
2023/08/24 05:19:23;;;;;;;15.23;8.30;;;15.10;99.90;;;;;;6244878;22;20111;-87
2023/08/24 05:25:04;;;;;;;14.10;8.40;;;15.20;99.90;;;;;;6247060;23;20024;-88
2023/08/24 05:27:49;;;;;;;15.88;8.10;;;15.30;99.90;;;;;;6220654;23;20020;-88
2023/08/24 05:34:36;;;;;;;16.52;7.28;;;15.40;99.90;;;;;;6220518;23;20052;-88
2023/08/24 05:37:26;;;;;;;16.60;7.55;;;15.40;99.90;;;;;;6184504;23;20020;-90
2023/08/24 05:40:02;;;;;;;13.48;7.22;;;15.60;99.90;;;;;;6246436;23;20024;-87
2023/08/24 05:42:31;;;;;;;11.52;6.45;;;15.60;99.90;;;;;;6246653;23;20012;-89
2023/08/24 05:48:01;;;;;;;14.15;7.00;;;15.70;99.90;;;;;;6178562;23;20488;-87
2023/08/24 05:50:51;;;;;;;14.20;6.60;;;15.80;99.90;;;;;;6217034;23;20020;-86
2023/08/24 05:53:40;;;;;;;13.95;6.55;;;15.90;99.90;;;;;;6219463;23;20012;-89
2023/08/24 05:56:06;;;;;;;13.32;6.45;;;15.90;99.90;;;;;;6243435;23;20515;-88
2023/08/24 06:01:31;;;;;;;14.98;7.18;;;16.00;99.90;;;;;;6245005;22;20039;-88
2023/08/24 06:04:00;;;;;;;13.20;6.95;;;16.10;99.90;;;;;;6218401;23;20020;-88
2023/08/24 06:09:34;;;;;;;15.98;7.47;;;16.20;99.90;;;;;;6243800;22;20020;-88
2023/08/24 06:12:34;;;;;;;14.00;7.25;;;16.20;99.90;;;;;;6245826;23;20027;-88
2023/08/24 06:15:19;;;;;;;15.50;7.80;;;16.60;99.90;;;;;;6161707;23;20027;-85
2023/08/24 06:18:00;;;;;;;17.17;8.60;;;16.30;99.90;;;;;;6245020;23;20016;-84
2023/08/24 06:20:26;;;;;;;17.58;9.10;;;16.40;99.90;;;;;;6246743;23;20017;-83
2023/08/24 06:22:55;;;;;;;16.40;9.48;;;16.50;99.90;;;;;;6218824;23;20326;-84
2023/08/24 06:25:23;;;;;;;16.75;9.10;;;16.50;99.90;;;;;;6219119;23;20119;-86
2023/08/24 06:28:13;;;;;;;17.30;10.07;;;16.60;99.90;;;;;;6217892;22;20020;-86
2023/08/24 06:31:00;;;;;;;20.23;10.15;;;16.30;99.90;;;;;;6218846;23;20026;-86
2023/08/24 06:33:38;;;;;;;17.65;9.35;;;16.90;99.90;;;;;;6219436;23;20095;-86
2023/08/24 06:36:08;;;;;;;19.52;10.10;;;17.00;99.90;;;;;;6245838;22;20032;-89
2023/08/24 06:38:34;;;;;;;19.00;10.57;;;17.10;99.90;;;;;;6244680;23;20077;-85
2023/08/24 06:41:00;;;;;;;19.35;11.07;;;17.10;99.90;;;;;;6219481;23;20054;-86
2023/08/24 06:43:32;;;;;;;20.52;11.63;;;17.20;99.90;;;;;;6246464;23;20019;-85
2023/08/24 06:45:57;;;;;;;22.50;11.70;;;17.20;99.90;;;;;;6218277;23;20043;-85
2023/08/24 06:48:39;;;;;;;18.23;11.50;;;17.30;99.90;;;;;;6246184;23;20020;-85
2023/08/24 06:51:04;;;;;;;23.13;12.10;;;17.40;99.90;;;;;;6219393;23;20449;-85
2023/08/24 06:53:40;;;;;;;20.55;12.68;;;17.50;99.90;;;;;;6217856;23;20047;-85
2023/08/24 06:56:20;;;;;;;23.60;12.80;;;17.50;99.90;;;;;;6219571;23;20092;-85
2023/08/24 06:58:58;;;;;;;23.33;12.90;;;17.60;99.90;;;;;;6219091;23;20052;-85
2023/08/24 07:01:25;;;;;;;22.70;13.00;;;17.70;99.90;;;;;;6218631;23;20008;-85
2023/08/24 07:03:51;;;;;;;27.42;13.45;;;17.80;99.90;;;;;;6219557;23;20020;-85
2023/08/24 07:06:29;;;;;;;23.67;12.00;;;18.00;99.90;;;;;;6218710;23;20091;-85
2023/08/24 07:09:09;;;;;;;21.70;12.45;;;18.00;99.90;;;;;;6218661;23;20020;-85
2023/08/24 07:11:35;;;;;;;19.38;12.68;;;18.10;99.90;;;;;;6219250;23;20020;-85
2023/08/24 07:14:19;;;;;;;19.17;12.15;;;18.30;99.90;;;;;;6217544;23;20020;-85
2023/08/24 07:16:54;;;;;;;18.13;11.45;;;18.40;99.90;;;;;;6245852;23;20016;-85
2023/08/24 07:19:29;;;;;;;19.75;11.60;;;18.50;99.90;;;;;;6219571;23;20023;-85
2023/08/24 07:22:13;;;;;;;18.98;12.02;;;18.70;99.90;;;;;;6217277;23;20099;-86
2023/08/24 07:24:42;;;;;;;18.58;11.80;;;18.80;99.90;;;;;;6218343;23;20020;-85
2023/08/24 07:27:10;;;;;;;19.88;11.35;;;18.60;99.90;;;;;;6246198;23;20425;-85
2023/08/24 07:29:47;;;;;;;18.77;11.55;;;18.90;99.90;;;;;;6244588;23;20012;-85
2023/08/24 07:32:26;;;;;;;20.90;12.05;;;19.00;99.90;;;;;;6218620;23;20063;-85
2023/08/24 07:35:06;;;;;;;21.58;11.48;;;19.10;99.90;;;;;;6244629;23;20016;-85
2023/08/24 07:38:21;;;;;;;19.77;11.52;;;19.20;99.90;;;;;;6243273;23;20020;-85
2023/08/24 07:40:47;;;;;;;18.48;10.57;;;18.90;99.90;;;;;;6218012;23;20020;-85
2023/08/24 07:43:27;;;;;;;18.73;11.18;;;19.40;99.90;;;;;;6218143;23;20024;-86
2023/08/24 07:46:07;;;;;;;16.95;10.85;;;19.50;99.90;;;;;;6245701;23;20031;-85
2023/08/24 07:48:42;;;;;;;19.13;11.48;;;19.60;99.90;;;;;;6217694;23;20047;-86
2023/08/24 07:51:23;;;;;;;17.27;10.25;;;19.60;99.90;;;;;;6218372;23;20468;-85
2023/08/24 07:54:04;;;;;;;17.92;10.95;;;19.70;99.90;;;;;;6218291;23;20047;-85
2023/08/24 08:00:18;;;;;;;;;;;20.00;99.90;;;;;;6069455;23;20019;-85
2023/08/24 08:02:53;;;;;;;16.52;10.07;;;19.60;99.90;;;;;;6112198;23;20745;-85
2023/08/24 08:05:41;;;;;;;22.23;11.15;;;20.20;99.90;;;;;;6219295;23;20024;-85
2023/08/24 08:08:16;;;;;;;18.85;10.32;;;20.30;99.90;;;;;;6161262;23;20016;-86
2023/08/24 08:13:50;;;;;;;15.13;10.02;;;20.50;99.90;;;;;;6202155;23;20081;-86
2023/08/24 08:16:24;;;;;;;16.08;9.65;;;20.50;99.90;;;;;;6245786;23;20012;-85
2023/08/24 08:18:59;;;;;;;16.42;9.90;;;20.70;99.90;;;;;;6218045;23;20046;-85
2023/08/24 08:21:25;;;;;;;16.23;9.25;;;20.80;99.90;;;;;;6245496;23;20464;-85
2023/08/24 08:24:00;;;;;;;16.27;9.60;;;20.90;99.90;;;;;;6217350;23;20024;-85
2023/08/24 08:26:41;;;;;;;16.95;8.85;;;21.00;99.90;;;;;;6218349;23;20145;-85
2023/08/24 08:29:10;;;;;;;13.98;8.23;;;21.20;99.90;;;;;;6218646;23;20459;-85
2023/08/24 08:31:38;;;;;;;14.82;8.10;;;21.30;99.90;;;;;;6217695;23;20023;-85
2023/08/24 08:34:04;;;;;;;14.68;8.23;;;21.40;99.90;;;;;;6245516;23;20020;-85
2023/08/24 08:36:33;;;;;;;14.93;8.40;;;21.50;99.90;;;;;;6218246;23;20020;-85
2023/08/24 08:39:04;;;;;;;15.23;8.23;;;21.60;99.90;;;;;;6217732;23;20024;-85
2023/08/24 08:41:46;;;;;;;16.98;7.72;;;21.60;99.90;;;;;;6218777;23;20043;-86
2023/08/24 08:44:28;;;;;;;15.65;8.40;;;21.70;99.90;;;;;;6218732;23;20367;-85
2023/08/24 08:47:13;;;;;;;13.68;7.35;;;21.80;99.90;;;;;;6217626;23;20069;-85
2023/08/24 08:50:03;;;;;;;13.75;8.23;;;22.00;99.90;;;;;;6217889;23;20020;-85
2023/08/24 08:52:45;;;;;;;14.88;8.50;;;22.20;99.90;;;;;;6217206;23;20448;-85
2023/08/24 08:55:21;;;;;;;13.07;7.90;;;22.40;99.90;;;;;;6218712;23;20070;-85
2023/08/24 08:57:58;;;;;;;15.13;8.65;;;22.50;99.90;;;;;;6218507;23;20015;-85
2023/08/24 09:00:24;;;;;;;14.38;8.25;;;22.50;99.90;;;;;;6244523;23;20012;-85
2023/08/24 09:02:58;;;;;;;15.68;8.60;;;22.80;99.90;;;;;;6217893;23;20087;-85
2023/08/24 09:05:27;;;;;;;14.32;7.60;;;22.90;99.90;;;;;;6218606;23;20020;-85
2023/08/24 09:08:14;;;;;;;14.93;7.53;;;23.10;99.90;;;;;;6244179;23;20016;-85
2023/08/24 09:10:51;;;;;;;14.23;7.80;;;23.20;99.90;;;;;;6218353;23;20083;-85
2023/08/24 09:13:29;;;;;;;15.20;7.63;;;23.30;99.90;;;;;;6244522;23;20042;-85
2023/08/24 09:16:29;;;;;;;16.13;6.97;;;24.00;99.90;;;;;;6218126;23;20020;-86
2023/08/24 09:19:11;;;;;;;14.23;7.15;;;23.40;99.90;;;;;;6244927;23;20506;-85
2023/08/24 09:21:46;;;;;;;13.55;6.93;;;23.80;99.90;;;;;;6216613;23;20017;-85
2023/08/24 09:24:35;;;;;;;11.85;6.63;;;23.90;99.90;;;;;;6218831;23;20044;-85
2023/08/24 09:27:41;;;;;;;12.98;6.97;;;24.00;99.90;;;;;;6217747;23;20090;-85
2023/08/24 09:31:01;;;;;;;13.48;7.07;;;24.00;99.90;;;;;;6097969;23;20057;-85
2023/08/24 09:40:15;;;;;;;12.77;7.00;;;24.60;99.90;;;;;;6114557;23;20404;-86
2023/08/24 09:43:18;;;;;;;14.30;6.65;;;24.90;99.90;;;;;;6229881;22;20016;-85
2023/08/24 09:45:50;;;;;;;14.38;7.13;;;25.10;99.90;;;;;;6246881;23;20020;-85
2023/08/24 09:48:18;;;;;;;11.63;6.40;;;25.20;99.90;;;;;;6219171;23;20059;-85
2023/08/24 09:51:16;;;;;;;13.15;6.43;;;25.40;99.90;;;;;;6219436;23;20275;-85
2023/08/24 09:56:50;;;;;;;11.93;6.13;;;25.40;99.90;;;;;;6218563;23;20020;-85
2023/08/24 10:00:09;;;;;;;14.38;7.22;;;25.30;99.90;;;;;;6219674;23;20054;-85
2023/08/24 10:02:36;;;;;;;16.30;7.75;;;25.20;99.90;;;;;;6202370;23;20020;-85
2023/08/24 10:05:20;;;;;;;13.70;6.30;;;25.20;99.90;;;;;;6247115;23;20027;-86
2023/08/24 10:08:09;;;;;;;14.52;7.97;;;25.00;99.90;;;;;;6217326;23;20504;-86
2023/08/24 10:10:44;;;;;;;12.80;6.97;;;25.00;99.90;;;;;;6245548;23;20449;-86
2023/08/24 10:13:41;;;;;;;12.77;7.03;;;24.90;99.90;;;;;;6245431;23;20057;-85
2023/08/24 10:16:14;;;;;;;11.93;6.90;;;24.80;99.90;;;;;;6218564;23;20058;-85
2023/08/24 10:19:30;;;;;;;12.27;6.97;;;24.80;99.90;;;;;;6218858;23;20043;-85
2023/08/24 10:22:15;;;;;;;13.38;7.50;;;24.60;99.90;;;;;;6215615;23;20072;-85
2023/08/24 10:24:44;;;;;;;12.88;7.80;;;25.00;99.90;;;;;;6218035;23;20139;-85
2023/08/24 10:28:06;;;;;;;14.27;8.38;;;24.70;99.90;;;;;;6219821;23;20023;-85
2023/08/24 10:30:54;;;;;;;14.82;8.57;;;24.40;99.90;;;;;;6069453;23;20482;-85
2023/08/24 10:33:44;;;;;;;15.35;8.50;;;24.50;99.90;;;;;;6070559;23;20077;-85
2023/08/24 10:36:20;;;;;;;;;;;;;;;;;;;;;
2023/08/24 10:41:49;;;;;;;16.58;8.48;;;24.40;99.90;;;;;;6186154;23;20025;-85
2023/08/24 10:44:53;;;;;;;13.93;8.65;;;24.40;99.90;;;;;;6101070;23;20330;-85
2023/08/24 10:48:04;;;;;;;16.75;8.63;;;24.30;99.90;;;;;;6159383;23;20036;-85
2023/08/24 10:50:38;;;;;;;13.85;8.48;;;24.30;99.90;;;;;;6159420;23;20021;-85
2023/08/24 10:54:03;;;;;;;16.30;8.35;;;24.10;99.90;;;;;;6185059;23;20028;-85
2023/08/24 10:57:02;;;;;;;16.58;8.45;;;24.30;99.90;;;;;;6157861;23;20096;-85
2023/08/24 10:59:34;;;;;;;14.43;7.93;;;24.30;99.90;;;;;;6158646;23;20021;-86
2023/08/24 11:02:19;;;;;;;16.10;9.13;;;24.40;99.90;;;;;;6185604;23;20032;-85
2023/08/24 11:05:37;;;;;;;13.07;8.25;;;24.40;99.90;;;;;;6159012;23;20020;-85
2023/08/24 11:08:05;;;;;;;14.45;8.35;;;24.50;99.90;;;;;;6040501;23;20482;-85
2023/08/24 11:10:43;;;;;;;14.20;7.68;;;24.60;99.90;;;;;;6065505;23;20106;-85
2023/08/24 11:13:23;;;;;;;14.13;8.10;;;24.80;99.90;;;;;;6040986;23;20317;-85
2023/08/24 11:16:15;;;;;;;14.18;7.57;;;24.90;99.90;;;;;;6042056;23;20018;-86
2023/08/24 11:18:49;;;;;;;14.38;7.53;;;25.10;99.90;;;;;;6049055;23;20017;-85
2023/08/24 11:21:30;;;;;;;13.98;8.05;;;25.20;99.90;;;;;;6184926;23;20060;-85
2023/08/24 11:24:17;;;;;;;14.45;7.43;;;25.50;99.90;;;;;;6185403;23;20045;-85
2023/08/24 11:27:10;;;;;;;14.70;6.72;;;25.60;99.90;;;;;;6168128;23;20137;-85
2023/08/24 11:30:00;;;;;;;12.45;7.00;;;25.50;99.90;;;;;;6142587;23;20025;-85
2023/08/24 11:32:37;;;;;;;12.88;7.38;;;25.70;99.90;;;;;;6159416;23;20024;-85
2023/08/24 11:35:38;;;;;;;11.07;6.10;;;25.70;99.90;;;;;;6157918;23;20381;-85
2023/08/24 11:38:14;;;;;;;;;;;;;;;;;;;;;
2023/08/24 11:41:33;;;;;;;10.68;6.38;;;25.60;99.90;;;;;;6137492;23;20021;-85
2023/08/24 11:44:20;;;;;;;;;;;25.70;99.90;;;;;;6159201;23;20025;-85
2023/08/24 11:47:02;;;;;;;12.93;7.38;;;25.70;99.90;;;;;;6158881;23;19923;-85
2023/08/24 11:49:42;;;;;;;13.95;6.25;;;25.60;99.90;;;;;;6184650;23;20079;-85
2023/08/24 11:52:14;;;;;;;11.73;6.53;;;25.60;99.90;;;;;;6158664;23;20040;-85
2023/08/24 11:55:12;;;;;;;12.10;6.53;;;25.60;99.90;;;;;;6157924;23;20433;-85
2023/08/24 11:58:23;;;;;;;11.63;6.18;;;25.60;99.90;;;;;;6040462;23;20026;-85
2023/08/24 12:01:13;;;;;;;13.38;6.40;;;25.70;99.90;;;;;;6037804;23;20121;-85
2023/08/24 12:03:41;;;;;;;12.65;6.22;;;25.70;99.90;;;;;;6064251;23;20384;-85
2023/08/24 12:06:15;;;;;;;13.35;7.10;;;25.70;99.90;;;;;;6041115;23;20464;-85
2023/08/24 12:09:11;;;;;;;12.57;6.07;;;25.80;99.90;;;;;;6064329;23;20046;-85
2023/08/24 12:11:45;;;;;;;15.15;6.60;;;25.80;99.90;;;;;;6064960;23;20045;-85
2023/08/24 12:14:38;;;;;;;12.75;6.50;;;25.70;99.90;;;;;;6030461;23;20019;-85
2023/08/24 12:17:11;;;;;;;12.07;6.50;;;25.60;99.90;;;;;;6132651;22;20339;-85
2023/08/24 12:23:13;;;;;;;11.82;6.72;;;25.30;99.90;;;;;;6216910;23;20036;-85
2023/08/24 12:26:00;;;;;;;10.38;5.85;;;25.20;99.90;;;;;;6245333;23;20016;-85
2023/08/24 12:28:41;;;;;;;12.43;6.80;;;25.20;99.90;;;;;;6218085;23;20083;-85
2023/08/24 12:31:17;;;;;;;11.63;6.70;;;25.20;99.90;;;;;;6217509;23;20070;-85
2023/08/24 12:34:28;;;;;;;11.68;6.20;;;25.30;99.90;;;;;;6245367;23;20087;-85
2023/08/24 12:37:14;;;;;;;12.50;6.57;;;25.40;99.90;;;;;;6243684;23;20536;-85
2023/08/24 12:39:49;;;;;;;11.75;6.22;;;25.50;99.90;;;;;;6218184;23;20016;-85
2023/08/24 12:43:27;;;;;;;11.20;6.00;;;25.70;99.90;;;;;;6217658;23;20017;-85
2023/08/24 12:46:02;;;;;;;12.40;6.60;;;26.10;99.90;;;;;;6216597;23;20016;-85
2023/08/24 12:48:31;;;;;;;14.13;6.47;;;26.60;99.90;;;;;;6218107;23;20127;-85
2023/08/24 12:51:02;;;;;;;12.77;6.70;;;26.80;99.90;;;;;;6243756;23;20027;-85
2023/08/24 12:53:48;;;;;;;11.68;6.38;;;27.00;99.90;;;;;;6217818;23;20023;-85
2023/08/24 12:56:24;;;;;;;13.13;6.85;;;27.40;99.90;;;;;;6132156;23;20031;-86
2023/08/24 12:59:05;;;;;;;11.60;6.93;;;27.60;99.90;;;;;;6238526;23;20020;-86
2023/08/24 13:01:49;;;;;;;12.15;6.50;;;27.70;99.90;;;;;;6218227;23;20024;-86
2023/08/24 13:04:21;;;;;;;14.55;6.65;;;27.80;99.90;;;;;;6245333;23;20012;-86
2023/08/24 13:06:49;;;;;;;11.45;6.80;;;27.60;99.90;;;;;;6217004;23;20052;-85
2023/08/24 13:09:16;;;;;;;13.10;6.82;;;27.60;99.90;;;;;;6218601;23;20051;-86
2023/08/24 13:11:48;;;;;;;11.23;5.80;;;27.50;99.90;;;;;;6244631;23;20027;-86
2023/08/24 13:14:22;;;;;;;11.73;6.63;;;27.30;99.90;;;;;;6246171;23;20452;-85
2023/08/24 13:17:02;;;;;;;18.13;6.90;;;27.30;99.90;;;;;;6219747;23;20020;-85
2023/08/24 13:19:48;;;;;;;16.83;6.80;;;27.20;99.90;;;;;;6247725;23;20012;-85
2023/08/24 13:22:29;;;;;;;12.25;6.93;;;27.30;99.90;;;;;;6220002;23;20027;-85
2023/08/24 13:24:58;;;;;;;13.25;5.65;;;27.10;99.90;;;;;;6220116;23;20031;-85
2023/08/24 13:27:45;;;;;;;11.68;5.57;;;27.20;99.90;;;;;;6246038;23;20479;-85
2023/08/24 13:30:16;;;;;;;11.02;6.05;;;27.10;99.90;;;;;;6220543;23;20020;-85
2023/08/24 13:33:15;;;;;;;10.93;5.78;;;27.00;99.90;;;;;;6220373;23;20031;-85
2023/08/24 13:35:53;;;;;;;11.10;6.25;;;26.80;99.90;;;;;;6165351;23;20023;-85
2023/08/24 13:38:28;;;;;;;11.23;5.53;;;26.70;99.90;;;;;;6219947;23;20020;-85
2023/08/24 13:44:08;;;;;;;11.48;5.95;;;26.60;99.90;;;;;;6197572;23;20510;-85
2023/08/24 13:46:55;;;;;;;12.23;5.78;;;26.70;99.90;;;;;;6246507;23;20020;-85
2023/08/24 13:49:24;;;;;;;11.07;5.40;;;26.80;99.90;;;;;;6246271;23;20020;-85
2023/08/24 13:51:50;;;;;;;10.70;6.22;;;27.10;99.90;;;;;;6219558;23;20094;-85
2023/08/24 13:54:17;;;;;;;11.07;6.40;;;27.30;99.90;;;;;;6244814;22;20035;-85
2023/08/24 13:56:47;;;;;;;11.30;5.90;;;27.20;99.90;;;;;;6219424;23;20349;-86
2023/08/24 13:59:45;;;;;;;;;;;;;;;;;;;;;
2023/08/24 14:02:40;;;;;;;10.65;5.43;;;27.20;99.90;;;;;;6098706;23;20057;-85
2023/08/24 14:05:15;;;;;;;12.80;6.20;;;27.00;99.90;;;;;;6124506;23;20498;-85
2023/08/24 14:07:41;;;;;;;11.27;5.72;;;26.80;99.90;;;;;;6099367;23;20088;-84
2023/08/24 14:10:15;;;;;;;11.75;5.80;;;26.60;99.90;;;;;;6098888;23;20395;-85
2023/08/24 14:12:41;;;;;;;10.73;5.65;;;26.40;99.90;;;;;;6217927;23;20016;-85
2023/08/24 14:15:07;;;;;;;11.90;6.07;;;26.20;99.90;;;;;;6219775;23;20340;-85
2023/08/24 14:17:48;;;;;;;11.02;5.80;;;26.10;99.90;;;;;;6246062;23;20016;-85
2023/08/24 14:20:14;;;;;;;12.77;5.90;;;25.90;99.90;;;;;;6219602;23;20082;-85
2023/08/24 14:22:54;;;;;;;12.05;6.03;;;25.70;99.90;;;;;;6237171;23;20048;-85
2023/08/24 14:25:43;;;;;;;11.65;5.53;;;25.60;99.90;;;;;;6219317;23;20031;-85
2023/08/24 14:32:12;;;;;;;11.98;6.00;;;25.30;99.90;;;;;;6217690;23;20039;-85
2023/08/24 14:34:53;;;;;;;14.07;6.10;;;25.10;99.90;;;;;;6236717;23;20074;-85
2023/08/24 14:37:33;;;;;;;10.70;5.28;;;25.10;99.90;;;;;;6246986;23;20020;-85
2023/08/24 14:39:59;;;;;;;10.52;5.55;;;25.10;99.90;;;;;;6219311;23;20017;-85
2023/08/24 14:42:45;;;;;;;11.80;5.60;;;25.00;99.90;;;;;;6219454;23;20051;-85
2023/08/24 14:45:11;;;;;;;13.40;5.60;;;25.00;99.90;;;;;;6218489;23;20058;-85
2023/08/24 14:47:39;;;;;;;10.00;5.82;;;24.90;99.90;;;;;;6218773;23;20012;-85
2023/08/24 14:50:13;;;;;;;11.63;5.63;;;24.90;99.90;;;;;;6219148;23;20024;-85
2023/08/24 14:52:40;;;;;;;11.15;5.85;;;24.80;99.90;;;;;;6245092;23;20016;-85
2023/08/24 14:55:10;;;;;;;9.88;5.90;;;24.80;99.90;;;;;;6218675;23;20012;-85
2023/08/24 14:57:41;;;;;;;12.07;6.03;;;24.70;99.90;;;;;;6217931;23;20016;-85
2023/08/24 15:00:09;;;;;;;12.93;6.15;;;24.80;99.90;;;;;;6219290;23;20484;-85
2023/08/24 15:02:39;;;;;;;12.65;5.93;;;24.80;99.90;;;;;;6246132;23;20016;-85
2023/08/24 15:05:05;;;;;;;10.23;5.53;;;24.70;99.90;;;;;;6245488;23;20023;-85
2023/08/24 15:07:40;;;;;;;13.15;6.20;;;24.70;99.90;;;;;;6217332;23;20012;-85
2023/08/24 15:10:20;;;;;;;11.35;5.60;;;24.60;99.90;;;;;;6219061;23;20441;-85
2023/08/24 15:13:00;;;;;;;13.40;5.90;;;24.60;99.90;;;;;;6218100;23;20024;-85
2023/08/24 15:15:37;;;;;;;11.93;5.80;;;24.60;99.90;;;;;;6219932;23;20027;-85
2023/08/24 15:18:10;;;;;;;9.55;5.30;;;24.50;99.90;;;;;;6219419;23;20107;-85
2023/08/24 15:20:56;;;;;;;;;;;24.50;99.90;;;;;;6218235;23;20069;-85
2023/08/24 15:23:31;;;;;;;11.10;6.13;;;24.80;99.90;;;;;;6245897;23;19986;-85
2023/08/24 15:26:49;;;;;;;15.25;6.10;;;24.50;99.90;;;;;;6214115;23;20051;-85
2023/08/24 15:29:40;;;;;;;16.85;7.43;;;24.40;99.90;;;;;;6218684;23;20020;-85
2023/08/24 15:32:12;;;;;;;14.00;6.80;;;24.50;99.90;;;;;;6218594;23;20016;-85
2023/08/24 15:34:56;;;;;;;13.95;6.30;;;24.50;99.90;;;;;;6244649;23;20066;-85
2023/08/24 15:37:22;;;;;;;13.07;6.65;;;24.50;99.90;;;;;;6218527;23;20059;-85
2023/08/24 15:40:06;;;;;;;12.65;6.10;;;24.60;99.90;;;;;;6244585;23;20333;-84
2023/08/24 15:42:32;;;;;;;11.32;6.13;;;24.70;99.90;;;;;;6245876;23;20097;-85